createdAt,value
2022-10-18T00:00:02.368Z,12.34
2022-10-18T00:03:06.687Z,12.33
2022-10-18T00:05:49.560Z,12.31
2022-10-18T00:08:31.915Z,12.30
2022-10-18T00:11:13.712Z,12.29
2022-10-18T00:13:57.035Z,12.27
2022-10-18T00:16:38.827Z,12.26
2022-10-18T00:19:20.519Z,12.24
2022-10-18T00:22:02.155Z,12.20
2022-10-18T00:24:44.413Z,12.17
2022-10-18T00:27:26.103Z,12.14
2022-10-18T00:30:08.511Z,12.12
2022-10-18T00:32:50.206Z,12.12
2022-10-18T00:35:35.279Z,12.12
2022-10-18T00:38:16.963Z,12.11
2022-10-18T00:40:58.756Z,12.10
2022-10-18T00:44:04.618Z,12.09
2022-10-18T00:46:48.865Z,12.07
2022-10-18T00:49:34.164Z,12.04
2022-10-18T00:52:26.582Z,12.02
2022-10-18T00:55:10.061Z,12.00
2022-10-18T00:57:52.249Z,11.99
2022-10-18T01:00:38.926Z,11.98
2022-10-18T01:03:20.720Z,11.97
2022-10-18T01:06:02.409Z,11.93
2022-10-18T01:09:09.291Z,11.90
2022-10-18T01:11:59.994Z,11.87
2022-10-18T01:14:53.051Z,11.86
2022-10-18T01:18:04.542Z,11.85
2022-10-18T01:21:04.698Z,11.85
2022-10-18T01:24:15.846Z,11.85
2022-10-18T01:27:35.835Z,11.84
2022-10-18T01:30:37.085Z,11.83
2022-10-18T01:33:36.286Z,11.82
2022-10-18T01:36:35.925Z,11.80
2022-10-18T01:39:29.056Z,11.79
2022-10-18T01:42:14.132Z,11.80
2022-10-18T01:44:56.641Z,11.79
2022-10-18T01:47:39.250Z,11.81
2022-10-18T01:50:32.348Z,11.82
2022-10-18T01:53:32.269Z,11.81
2022-10-18T01:56:22.928Z,11.79
2022-10-18T01:59:21.822Z,11.77
2022-10-18T02:02:25.427Z,11.75
2022-10-18T02:05:25.958Z,11.73
2022-10-18T02:08:29.313Z,11.73
2022-10-18T02:11:14.033Z,11.69
2022-10-18T02:14:00.550Z,11.69
2022-10-18T02:16:48.563Z,11.68
2022-10-18T02:19:35.579Z,11.68
2022-10-18T02:22:18.703Z,11.68
2022-10-18T02:25:05.618Z,11.69
2022-10-18T02:27:47.922Z,11.69
2022-10-18T02:30:37.417Z,11.70
2022-10-18T02:33:30.554Z,11.71
2022-10-18T02:36:38.153Z,11.71
2022-10-18T02:39:29.576Z,11.71
2022-10-18T02:42:12.082Z,11.70
2022-10-18T02:44:53.714Z,11.69
2022-10-18T02:47:35.465Z,11.67
2022-10-18T02:50:17.882Z,11.65
2022-10-18T02:52:59.665Z,11.64
2022-10-18T02:55:41.357Z,11.61
2022-10-18T02:58:23.046Z,11.59
2022-10-18T03:01:04.817Z,11.57
2022-10-18T03:03:46.532Z,11.56
2022-10-18T03:06:28.631Z,11.53
2022-10-18T03:09:10.528Z,11.49
2022-10-18T03:11:52.219Z,11.43
2022-10-18T03:14:33.911Z,11.37
2022-10-18T03:17:15.804Z,11.30
2022-10-18T03:19:57.496Z,11.26
2022-10-18T03:22:39.393Z,11.21
2022-10-18T03:25:21.081Z,11.17
2022-10-18T03:28:02.879Z,11.14
2022-10-18T03:30:44.566Z,11.11
2022-10-18T03:33:26.257Z,11.09
2022-10-18T03:36:08.050Z,11.10
2022-10-18T03:38:49.741Z,11.10
2022-10-18T03:41:31.637Z,11.10
2022-10-18T03:44:13.327Z,11.08
2022-10-18T03:46:55.022Z,11.05
2022-10-18T03:49:36.711Z,11.02
2022-10-18T03:52:18.400Z,10.96
2022-10-18T03:55:00.107Z,10.92
2022-10-18T03:57:41.884Z,10.88
2022-10-18T04:00:23.575Z,10.86
2022-10-18T04:03:05.368Z,10.84
2022-10-18T04:05:47.982Z,10.79
2022-10-18T04:08:30.696Z,10.76
2022-10-18T04:11:13.617Z,10.73
2022-10-18T04:13:55.574Z,10.72
2022-10-18T04:16:37.404Z,10.74
2022-10-18T04:19:19.302Z,10.79
2022-10-18T04:22:01.099Z,10.80
2022-10-18T04:24:42.794Z,10.84
2022-10-18T04:27:24.491Z,10.85
2022-10-18T04:30:06.991Z,10.85
2022-10-18T04:32:48.679Z,10.85
2022-10-18T04:35:30.473Z,10.85
2022-10-18T04:38:12.165Z,10.87
2022-10-18T04:40:53.956Z,10.87
2022-10-18T04:43:35.730Z,10.88
2022-10-18T04:46:17.647Z,10.90
2022-10-18T04:49:01.385Z,10.92
2022-10-18T04:51:43.177Z,10.95
2022-10-18T04:54:26.563Z,10.97
2022-10-18T04:57:10.349Z,10.98
2022-10-18T04:59:52.039Z,11.00
2022-10-18T05:02:34.024Z,11.00
2022-10-18T05:05:16.140Z,10.99
2022-10-18T05:07:57.848Z,11.02
2022-10-18T05:10:39.725Z,11.03
2022-10-18T05:13:21.826Z,11.04
2022-10-18T05:16:04.336Z,11.06
2022-10-18T05:18:46.232Z,11.08
2022-10-18T05:21:28.027Z,11.11
2022-10-18T05:24:11.865Z,11.14
2022-10-18T05:26:54.068Z,11.17
2022-10-18T05:29:35.761Z,11.21
2022-10-18T05:32:17.757Z,11.24
2022-10-18T05:34:59.859Z,11.29
2022-10-18T05:37:41.762Z,11.34
2022-10-18T05:40:23.855Z,11.40
2022-10-18T05:43:05.603Z,11.45
2022-10-18T05:45:51.544Z,11.48
2022-10-18T05:48:33.637Z,11.52
2022-10-18T05:51:15.635Z,11.57
2022-10-18T05:53:57.942Z,11.62
2022-10-18T05:56:40.269Z,11.67
2022-10-18T05:59:22.346Z,11.73
2022-10-18T06:02:04.242Z,11.79
2022-10-18T06:04:46.035Z,11.83
2022-10-18T06:07:27.743Z,11.88
2022-10-18T06:10:10.750Z,11.92
2022-10-18T06:12:52.950Z,11.97
2022-10-18T06:15:34.643Z,12.04
2022-10-18T06:18:16.743Z,12.09
2022-10-18T06:21:00.041Z,12.14
2022-10-18T06:23:42.487Z,12.19
2022-10-18T06:26:25.092Z,12.24
2022-10-18T06:29:06.926Z,12.29
2022-10-18T06:31:48.680Z,12.34
2022-10-18T06:34:31.291Z,12.39
2022-10-18T06:37:13.090Z,12.45
2022-10-18T06:39:54.877Z,12.49
2022-10-18T06:42:36.568Z,12.52
2022-10-18T06:45:20.309Z,12.57
2022-10-18T06:48:01.998Z,12.62
2022-10-18T06:50:50.588Z,12.69
2022-10-18T06:53:40.752Z,12.75
2022-10-18T06:56:36.359Z,12.81
2022-10-18T06:59:18.458Z,12.87
2022-10-18T07:02:00.840Z,12.93
2022-10-18T07:04:44.502Z,12.98
2022-10-18T07:07:26.500Z,13.04
2022-10-18T07:10:11.189Z,13.10
2022-10-18T07:13:07.973Z,13.17
2022-10-18T07:16:18.671Z,13.23
2022-10-18T07:19:00.575Z,13.28
2022-10-18T07:21:42.263Z,13.34
2022-10-18T07:24:24.132Z,13.39
2022-10-18T07:27:07.284Z,13.44
2022-10-18T07:29:52.970Z,13.48
2022-10-18T07:32:35.072Z,13.53
2022-10-18T07:35:16.865Z,13.58
2022-10-18T07:37:58.556Z,13.62
2022-10-18T07:40:40.246Z,13.68
2022-10-18T07:43:21.938Z,13.73
2022-10-18T07:46:06.596Z,13.78
2022-10-18T07:48:48.699Z,13.83
2022-10-18T07:51:32.972Z,13.89
2022-10-18T07:54:15.663Z,13.96
2022-10-18T07:56:57.371Z,14.02
2022-10-18T07:59:39.250Z,14.09
2022-10-18T08:02:20.939Z,14.13
2022-10-18T08:05:02.876Z,14.17
2022-10-18T08:07:44.628Z,14.18
2022-10-18T08:10:27.934Z,14.22
2022-10-18T08:13:10.468Z,14.30
2022-10-18T08:16:00.557Z,14.39
2022-10-18T08:18:42.254Z,14.47
2022-10-18T08:21:23.938Z,14.57
2022-10-18T08:24:06.140Z,14.63
2022-10-18T08:26:51.368Z,14.62
2022-10-18T08:29:33.151Z,14.57
2022-10-18T08:32:17.261Z,14.51
2022-10-18T08:34:58.919Z,14.45
2022-10-18T08:37:40.740Z,14.41
2022-10-18T08:40:23.147Z,14.38
2022-10-18T08:43:43.958Z,14.37
2022-10-18T08:46:26.158Z,14.33
2022-10-18T08:49:19.521Z,14.32
2022-10-18T08:52:02.443Z,14.29
2022-10-18T08:54:55.806Z,14.28
2022-10-18T08:57:37.602Z,14.30
2022-10-18T09:00:25.163Z,14.32
2022-10-18T09:03:22.262Z,14.34
2022-10-18T09:06:23.619Z,14.37
2022-10-18T09:09:27.442Z,14.40
2022-10-18T09:12:27.052Z,14.43
2022-10-18T09:15:48.066Z,14.45
2022-10-18T09:18:57.550Z,14.49
2022-10-18T09:21:53.455Z,14.57
2022-10-18T09:24:44.922Z,14.65
2022-10-18T09:27:39.251Z,14.73
2022-10-18T09:31:09.673Z,14.78
2022-10-18T09:33:58.257Z,14.83
2022-10-18T09:36:40.940Z,14.86
2022-10-18T09:39:32.975Z,14.88
2022-10-18T09:42:30.548Z,14.90
2022-10-18T09:45:32.268Z,14.91
2022-10-18T09:48:22.798Z,14.92
2022-10-18T09:51:18.104Z,14.93
2022-10-18T09:54:06.045Z,14.92
2022-10-18T09:56:51.629Z,14.92
2022-10-18T09:59:47.005Z,14.92
2022-10-18T10:02:28.755Z,14.92
2022-10-18T10:05:14.403Z,14.92
2022-10-18T10:08:02.352Z,14.94
2022-10-18T10:10:47.700Z,14.95
2022-10-18T10:13:29.520Z,14.97
2022-10-18T10:16:11.212Z,14.98
2022-10-18T10:18:54.642Z,15.00
2022-10-18T10:21:40.238Z,15.01
2022-10-18T10:24:33.896Z,15.01
2022-10-18T10:27:21.219Z,14.99
2022-10-18T10:30:07.366Z,14.98
2022-10-18T10:32:51.674Z,14.96
2022-10-18T10:35:53.002Z,14.96
2022-10-18T10:38:35.784Z,14.96
2022-10-18T10:41:23.988Z,14.97
2022-10-18T10:44:16.011Z,14.96
2022-10-18T10:46:58.522Z,14.94
2022-10-18T10:49:46.978Z,14.92
2022-10-18T10:52:29.686Z,14.91
2022-10-18T10:55:35.317Z,14.90
2022-10-18T10:58:18.463Z,14.87
2022-10-18T11:01:18.691Z,14.84
2022-10-18T11:04:04.069Z,14.83
2022-10-18T11:07:08.935Z,14.82
2022-10-18T11:09:56.354Z,14.81
2022-10-18T11:12:44.289Z,14.80
2022-10-18T11:15:49.546Z,14.80
2022-10-18T11:18:36.846Z,14.80
2022-10-18T11:21:32.036Z,14.80
2022-10-18T11:24:16.800Z,14.82
2022-10-18T11:27:21.018Z,14.83
2022-10-18T11:30:19.093Z,14.82
2022-10-18T11:33:25.487Z,14.81
2022-10-18T11:36:17.732Z,14.84
2022-10-18T11:39:16.492Z,14.87
2022-10-18T11:42:22.248Z,14.88
2022-10-18T11:45:38.960Z,14.86
2022-10-18T11:48:39.493Z,14.81
2022-10-18T11:52:07.443Z,14.76
2022-10-18T11:55:13.838Z,14.74
2022-10-18T11:58:34.757Z,14.75
2022-10-18T12:01:58.936Z,14.77
2022-10-18T12:05:22.684Z,14.77
2022-10-18T12:08:12.596Z,14.78
2022-10-18T12:11:06.269Z,14.81
2022-10-18T12:13:57.019Z,14.82
2022-10-18T12:17:20.199Z,14.77
2022-10-18T12:19:46.465Z,14.71
2022-10-18T12:22:35.028Z,14.71
2022-10-18T12:25:19.845Z,14.72
2022-10-18T12:28:38.861Z,14.70
2022-10-18T12:31:35.549Z,14.72
2022-10-18T12:34:24.941Z,14.71
2022-10-18T12:37:38.396Z,14.70
2022-10-18T12:40:33.680Z,14.71
2022-10-18T12:43:27.177Z,14.71
2022-10-18T12:46:13.801Z,14.70
2022-10-18T12:49:05.660Z,14.71
2022-10-18T12:51:58.744Z,14.74
2022-10-18T12:54:40.870Z,14.76
2022-10-18T12:57:23.891Z,14.78
2022-10-18T13:00:06.330Z,14.82
2022-10-18T13:03:14.510Z,14.87
2022-10-18T13:06:02.976Z,14.93
2022-10-18T13:08:51.207Z,14.98
2022-10-18T13:11:36.146Z,15.01
2022-10-18T13:15:12.544Z,15.02
2022-10-18T13:18:04.914Z,15.03
2022-10-18T13:21:23.545Z,15.03
2022-10-18T13:24:33.189Z,14.97
2022-10-18T13:27:36.262Z,14.91
2022-10-18T13:30:18.592Z,14.85
2022-10-18T13:33:19.632Z,14.81
2022-10-18T13:36:21.780Z,14.77
2022-10-18T13:39:06.361Z,14.74
2022-10-18T13:41:48.053Z,14.72
2022-10-18T13:44:39.988Z,14.70
2022-10-18T13:47:36.830Z,14.66
2022-10-18T13:50:38.259Z,14.62
2022-10-18T13:53:31.933Z,14.58
2022-10-18T13:56:45.390Z,14.56
2022-10-18T13:59:52.067Z,14.53
2022-10-18T14:02:51.474Z,14.52
2022-10-18T14:05:51.929Z,14.50
2022-10-18T14:08:56.877Z,14.48
2022-10-18T14:11:50.006Z,14.45
2022-10-18T14:14:46.855Z,14.42
2022-10-18T14:17:47.392Z,14.41
2022-10-18T14:20:49.095Z,14.39
2022-10-18T14:23:37.045Z,14.35
2022-10-18T14:26:21.932Z,14.32
2022-10-18T14:29:16.257Z,14.29
2022-10-18T14:31:59.045Z,14.27
2022-10-18T14:34:44.832Z,14.25
2022-10-18T14:37:37.528Z,14.24
2022-10-18T14:40:46.131Z,14.22
2022-10-18T14:43:28.536Z,14.21
2022-10-18T14:46:30.208Z,14.20
2022-10-18T14:49:16.745Z,14.18
2022-10-18T14:52:00.914Z,14.15
2022-10-18T14:54:44.119Z,14.09
2022-10-18T14:57:34.448Z,14.03
2022-10-18T15:00:28.528Z,13.98
2022-10-18T15:03:15.209Z,13.95
2022-10-18T15:05:59.691Z,13.93
2022-10-18T15:08:44.084Z,13.94
2022-10-18T15:11:27.987Z,13.96
2022-10-18T15:14:17.232Z,13.98
2022-10-18T15:17:04.152Z,13.99
2022-10-18T15:20:08.074Z,14.00
2022-10-18T15:22:52.438Z,14.01
2022-10-18T15:25:36.777Z,13.99
2022-10-18T15:28:31.342Z,14.00
2022-10-18T15:31:24.341Z,13.99
2022-10-18T15:34:27.241Z,13.99
2022-10-18T15:37:17.831Z,14.00
2022-10-18T15:40:21.737Z,14.00
2022-10-18T15:43:25.894Z,13.99
2022-10-18T15:46:32.606Z,13.99
2022-10-18T15:49:38.522Z,13.98
2022-10-18T15:52:37.449Z,13.98
2022-10-18T15:55:30.515Z,13.98
2022-10-18T15:58:16.584Z,13.99
2022-10-18T16:01:01.802Z,14.01
2022-10-18T16:03:47.323Z,14.04
2022-10-18T16:06:29.286Z,14.09
2022-10-18T16:09:16.919Z,14.08
2022-10-18T16:11:58.817Z,14.08
2022-10-18T16:14:40.504Z,14.07
2022-10-18T16:17:22.196Z,14.05
2022-10-18T16:20:05.118Z,14.03
2022-10-18T16:22:46.854Z,14.00
2022-10-18T16:25:39.833Z,13.98
2022-10-18T16:28:28.647Z,13.95
2022-10-18T16:31:17.518Z,13.92
2022-10-18T16:33:59.988Z,13.89
2022-10-18T16:36:41.780Z,13.87
2022-10-18T16:39:24.087Z,13.85
2022-10-18T16:42:05.985Z,13.82
2022-10-18T16:44:49.314Z,13.80
2022-10-18T16:47:31.002Z,13.78
2022-10-18T16:50:19.349Z,13.76
2022-10-18T16:53:01.042Z,13.75
2022-10-18T16:55:43.653Z,13.74
2022-10-18T16:58:27.705Z,13.73
2022-10-18T17:01:17.536Z,13.73
2022-10-18T17:03:59.273Z,13.72
2022-10-18T17:06:41.073Z,13.72
2022-10-18T17:09:22.825Z,13.70
2022-10-18T17:12:05.283Z,13.69
2022-10-18T17:14:46.957Z,13.69
2022-10-18T17:17:28.756Z,13.67
2022-10-18T17:20:20.347Z,13.67
2022-10-18T17:23:02.066Z,13.66
2022-10-18T17:25:59.141Z,13.65
2022-10-18T17:29:09.076Z,13.64
2022-10-18T17:31:51.786Z,13.61
2022-10-18T17:34:36.067Z,13.60
2022-10-18T17:37:17.932Z,13.57
2022-10-18T17:39:59.828Z,13.54
2022-10-18T17:42:41.928Z,13.51
2022-10-18T17:45:24.075Z,13.47
2022-10-18T17:48:06.339Z,13.44
2022-10-18T17:50:48.845Z,13.40
2022-10-18T17:53:31.152Z,13.35
2022-10-18T17:56:15.006Z,13.31
2022-10-18T17:58:57.391Z,13.27
2022-10-18T18:01:39.723Z,13.23
2022-10-18T18:04:21.702Z,13.19
2022-10-18T18:07:05.133Z,13.16
2022-10-18T18:09:47.233Z,13.13
2022-10-18T18:12:29.624Z,13.09
2022-10-18T18:15:14.609Z,13.08
2022-10-18T18:17:57.957Z,13.09
2022-10-18T18:20:40.141Z,13.09
2022-10-18T18:23:21.835Z,13.08
2022-10-18T18:26:04.035Z,13.07
2022-10-18T18:28:46.036Z,13.06
2022-10-18T18:31:32.483Z,13.03
2022-10-18T18:34:22.797Z,13.00
2022-10-18T18:37:04.899Z,12.97
2022-10-18T18:39:46.725Z,12.94
2022-10-18T18:42:29.896Z,12.94
2022-10-18T18:45:12.215Z,12.92
2022-10-18T18:47:53.978Z,12.90
2022-10-18T18:50:37.381Z,12.88
2022-10-18T18:53:19.892Z,12.86
2022-10-18T18:56:11.770Z,12.85
2022-10-18T18:58:54.118Z,12.84
2022-10-18T19:01:37.560Z,12.82
2022-10-18T19:04:19.658Z,12.79
2022-10-18T19:07:01.555Z,12.78
2022-10-18T19:09:44.882Z,12.75
2022-10-18T19:12:26.530Z,12.72
2022-10-18T19:15:16.362Z,12.70
2022-10-18T19:17:59.375Z,12.67
2022-10-18T19:20:41.271Z,12.66
2022-10-18T19:23:23.292Z,12.64
2022-10-18T19:26:25.087Z,12.63
2022-10-18T19:29:13.174Z,12.63
2022-10-18T19:31:57.750Z,12.62
2022-10-18T19:34:40.651Z,12.60
2022-10-18T19:37:22.548Z,12.57
2022-10-18T19:40:05.085Z,12.54
2022-10-18T19:42:49.108Z,12.49
2022-10-18T19:45:31.728Z,12.46
2022-10-18T19:48:13.641Z,12.41
2022-10-18T19:50:55.364Z,12.37
2022-10-18T19:53:39.315Z,12.36
2022-10-18T19:56:23.692Z,12.36
2022-10-18T19:59:05.391Z,12.33
2022-10-18T20:01:49.464Z,12.31
2022-10-18T20:04:34.635Z,12.27
2022-10-18T20:07:16.406Z,12.24
2022-10-18T20:09:58.102Z,12.21
2022-10-18T20:12:39.739Z,12.18
2022-10-18T20:15:21.373Z,12.17
2022-10-18T20:18:03.063Z,12.14
2022-10-18T20:20:48.148Z,12.12
2022-10-18T20:23:30.134Z,12.10
2022-10-18T20:26:20.527Z,12.09
2022-10-18T20:29:03.735Z,12.07
2022-10-18T20:31:45.651Z,12.05
2022-10-18T20:34:28.775Z,12.02
2022-10-18T20:37:10.671Z,12.00
2022-10-18T20:39:52.566Z,11.97
2022-10-18T20:42:34.264Z,11.93
2022-10-18T20:45:17.546Z,11.89
2022-10-18T20:47:59.278Z,11.86
2022-10-18T20:50:52.293Z,11.85
2022-10-18T20:53:35.871Z,11.81
2022-10-18T20:56:23.095Z,11.76
2022-10-18T20:59:06.506Z,11.73
2022-10-18T21:01:48.382Z,11.70
2022-10-18T21:04:30.210Z,11.67
2022-10-18T21:07:11.902Z,11.64
2022-10-18T21:09:53.592Z,11.62
2022-10-18T21:12:35.648Z,11.60
2022-10-18T21:15:17.999Z,11.58
2022-10-18T21:17:59.690Z,11.56
2022-10-18T21:20:41.379Z,11.54
2022-10-18T21:23:23.172Z,11.52
2022-10-18T21:26:05.892Z,11.50
2022-10-18T21:28:49.350Z,11.48
2022-10-18T21:31:35.005Z,11.44
2022-10-18T21:34:17.627Z,11.42
2022-10-18T21:36:59.410Z,11.38
2022-10-18T21:39:42.536Z,11.35
2022-10-18T21:42:24.226Z,11.30
2022-10-18T21:45:06.940Z,11.27
2022-10-18T21:47:49.145Z,11.23
2022-10-18T21:50:30.781Z,11.20
2022-10-18T21:53:13.856Z,11.17
2022-10-18T21:55:55.546Z,11.15
2022-10-18T21:58:37.750Z,11.12
2022-10-18T22:01:25.372Z,11.09
2022-10-18T22:04:17.310Z,11.05
2022-10-18T22:06:59.732Z,11.02
2022-10-18T22:09:42.127Z,10.98
2022-10-18T22:12:24.125Z,10.96
2022-10-18T22:15:06.384Z,10.93
2022-10-18T22:17:48.224Z,10.91
2022-10-18T22:20:29.915Z,10.90
2022-10-18T22:23:13.140Z,10.88
2022-10-18T22:25:54.833Z,10.85
2022-10-18T22:28:38.031Z,10.79
2022-10-18T22:31:22.516Z,10.73
2022-10-18T22:34:07.386Z,10.66
2022-10-18T22:36:49.275Z,10.59
2022-10-18T22:39:30.969Z,10.54
2022-10-18T22:42:12.657Z,10.51
2022-10-18T22:44:54.314Z,10.46
2022-10-18T22:47:36.318Z,10.44
2022-10-18T22:50:18.446Z,10.42
2022-10-18T22:53:00.137Z,10.39
2022-10-18T22:55:41.787Z,10.37
2022-10-18T22:58:23.929Z,10.35
2022-10-18T23:01:08.526Z,10.35
2022-10-18T23:03:58.472Z,10.33
2022-10-18T23:06:40.371Z,10.34
2022-10-18T23:09:22.060Z,10.34
2022-10-18T23:12:03.854Z,10.35
2022-10-18T23:14:46.055Z,10.37
2022-10-18T23:17:27.951Z,10.38
2022-10-18T23:20:10.255Z,10.41
2022-10-18T23:22:52.664Z,10.43
2022-10-18T23:25:40.427Z,10.45
2022-10-18T23:28:23.233Z,10.46
2022-10-18T23:31:15.201Z,10.48
2022-10-18T23:34:02.192Z,10.49
2022-10-18T23:39:30.457Z,10.53
2022-10-18T23:42:12.250Z,10.54
2022-10-18T23:44:53.942Z,10.55
2022-10-18T23:47:35.786Z,10.57
2022-10-18T23:50:17.835Z,10.59
2022-10-18T23:52:59.526Z,10.61
2022-10-18T23:55:53.095Z,10.63
2022-10-18T23:58:36.611Z,10.64
